sensor_id;sensor_type;location;lat;lon;timestamp;P1;durP1;ratioP1;P2;durP2;ratioP2
78877;SDS011;68257;43.514;1.498;2023-03-01T00:00:37;61.75;;;27.67;;
78877;SDS011;68257;43.514;1.498;2023-03-01T00:03:03;54.27;;;23.83;;
78877;SDS011;68257;43.514;1.498;2023-03-01T00:05:28;43.47;;;20.77;;
78877;SDS011;68257;43.514;1.498;2023-03-01T00:07:53;39.70;;;18.60;;
78877;SDS011;68257;43.514;1.498;2023-03-01T00:10:19;34.97;;;18.27;;
78877;SDS011;68257;43.514;1.498;2023-03-01T00:12:44;32.90;;;17.20;;
78877;SDS011;68257;43.514;1.498;2023-03-01T00:15:10;32.20;;;16.97;;
78877;SDS011;68257;43.514;1.498;2023-03-01T00:17:36;27.57;;;15.57;;
78877;SDS011;68257;43.514;1.498;2023-03-01T00:20:01;25.50;;;15.23;;
78877;SDS011;68257;43.514;1.498;2023-03-01T00:22:27;28.97;;;16.10;;
78877;SDS011;68257;43.514;1.498;2023-03-01T00:24:55;32.97;;;17.90;;
78877;SDS011;68257;43.514;1.498;2023-03-01T00:27:21;35.03;;;19.20;;
78877;SDS011;68257;43.514;1.498;2023-03-01T00:29:46;33.60;;;18.37;;
78877;SDS011;68257;43.514;1.498;2023-03-01T00:32:11;30.43;;;18.23;;
78877;SDS011;68257;43.514;1.498;2023-03-01T00:34:37;33.23;;;18.63;;
78877;SDS011;68257;43.514;1.498;2023-03-01T00:37:02;27.40;;;15.63;;
78877;SDS011;68257;43.514;1.498;2023-03-01T00:39:30;28.02;;;16.23;;
78877;SDS011;68257;43.514;1.498;2023-03-01T00:41:56;30.67;;;16.42;;
78877;SDS011;68257;43.514;1.498;2023-03-01T00:44:21;28.90;;;15.53;;
78877;SDS011;68257;43.514;1.498;2023-03-01T00:46:47;22.77;;;13.43;;
78877;SDS011;68257;43.514;1.498;2023-03-01T00:49:12;22.23;;;12.85;;
78877;SDS011;68257;43.514;1.498;2023-03-01T00:51:38;23.83;;;14.60;;
78877;SDS011;68257;43.514;1.498;2023-03-01T00:54:07;21.85;;;12.57;;
78877;SDS011;68257;43.514;1.498;2023-03-01T00:56:33;19.48;;;12.38;;
78877;SDS011;68257;43.514;1.498;2023-03-01T00:58:59;18.83;;;11.27;;
78877;SDS011;68257;43.514;1.498;2023-03-01T01:01:25;18.80;;;12.13;;
78877;SDS011;68257;43.514;1.498;2023-03-01T01:03:55;19.58;;;12.15;;
78877;SDS011;68257;43.514;1.498;2023-03-01T01:06:35;20.13;;;11.88;;
78877;SDS011;68257;43.514;1.498;2023-03-01T01:09:03;20.45;;;12.05;;
78877;SDS011;68257;43.514;1.498;2023-03-01T01:11:30;19.47;;;11.77;;
78877;SDS011;68257;43.514;1.498;2023-03-01T01:13:56;21.50;;;12.25;;
78877;SDS011;68257;43.514;1.498;2023-03-01T01:16:23;19.35;;;11.18;;
78877;SDS011;68257;43.514;1.498;2023-03-01T01:18:50;20.60;;;11.98;;
78877;SDS011;68257;43.514;1.498;2023-03-01T01:21:17;19.87;;;11.60;;
78877;SDS011;68257;43.514;1.498;2023-03-01T01:23:44;19.63;;;11.30;;
78877;SDS011;68257;43.514;1.498;2023-03-01T01:26:12;17.98;;;11.38;;
78877;SDS011;68257;43.514;1.498;2023-03-01T01:28:39;16.98;;;11.23;;
78877;SDS011;68257;43.514;1.498;2023-03-01T01:31:05;20.33;;;11.67;;
78877;SDS011;68257;43.514;1.498;2023-03-01T01:33:30;18.63;;;11.40;;
78877;SDS011;68257;43.514;1.498;2023-03-01T01:35:56;18.57;;;11.87;;
78877;SDS011;68257;43.514;1.498;2023-03-01T01:38:22;18.42;;;11.38;;
78877;SDS011;68257;43.514;1.498;2023-03-01T01:40:48;16.43;;;9.53;;
78877;SDS011;68257;43.514;1.498;2023-03-01T01:43:22;18.42;;;10.82;;
78877;SDS011;68257;43.514;1.498;2023-03-01T01:45:48;15.13;;;9.77;;
78877;SDS011;68257;43.514;1.498;2023-03-01T01:48:15;16.45;;;9.68;;
78877;SDS011;68257;43.514;1.498;2023-03-01T01:50:44;18.20;;;10.77;;
78877;SDS011;68257;43.514;1.498;2023-03-01T01:53:11;16.70;;;10.18;;
78877;SDS011;68257;43.514;1.498;2023-03-01T01:55:40;19.45;;;10.77;;
78877;SDS011;68257;43.514;1.498;2023-03-01T01:58:09;18.57;;;9.87;;
78877;SDS011;68257;43.514;1.498;2023-03-01T02:00:36;16.88;;;9.95;;
78877;SDS011;68257;43.514;1.498;2023-03-01T02:03:09;16.02;;;10.60;;
78877;SDS011;68257;43.514;1.498;2023-03-01T02:05:38;17.55;;;9.98;;
78877;SDS011;68257;43.514;1.498;2023-03-01T02:08:08;19.55;;;11.35;;
78877;SDS011;68257;43.514;1.498;2023-03-01T02:10:36;19.53;;;10.50;;
78877;SDS011;68257;43.514;1.498;2023-03-01T02:13:03;19.05;;;11.27;;
78877;SDS011;68257;43.514;1.498;2023-03-01T02:15:31;16.38;;;10.38;;
78877;SDS011;68257;43.514;1.498;2023-03-01T02:17:58;16.92;;;9.88;;
78877;SDS011;68257;43.514;1.498;2023-03-01T02:20:27;20.17;;;11.50;;
78877;SDS011;68257;43.514;1.498;2023-03-01T02:23:03;17.98;;;10.60;;
78877;SDS011;68257;43.514;1.498;2023-03-01T02:30:41;21.73;;;11.85;;
78877;SDS011;68257;43.514;1.498;2023-03-01T02:33:28;20.70;;;11.60;;
78877;SDS011;68257;43.514;1.498;2023-03-01T02:35:58;17.80;;;11.33;;
78877;SDS011;68257;43.514;1.498;2023-03-01T02:38:25;19.75;;;10.75;;
78877;SDS011;68257;43.514;1.498;2023-03-01T02:40:51;18.52;;;10.88;;
78877;SDS011;68257;43.514;1.498;2023-03-01T02:43:18;19.38;;;10.90;;
78877;SDS011;68257;43.514;1.498;2023-03-01T02:45:49;17.33;;;10.57;;
78877;SDS011;68257;43.514;1.498;2023-03-01T02:48:15;16.25;;;9.95;;
78877;SDS011;68257;43.514;1.498;2023-03-01T02:53:28;15.27;;;10.00;;
78877;SDS011;68257;43.514;1.498;2023-03-01T02:56:00;16.75;;;10.77;;
78877;SDS011;68257;43.514;1.498;2023-03-01T02:58:26;16.92;;;10.10;;
78877;SDS011;68257;43.514;1.498;2023-03-01T03:00:52;15.70;;;10.07;;
78877;SDS011;68257;43.514;1.498;2023-03-01T03:03:17;16.30;;;10.20;;
78877;SDS011;68257;43.514;1.498;2023-03-01T03:05:45;16.83;;;10.40;;
78877;SDS011;68257;43.514;1.498;2023-03-01T03:08:10;15.90;;;10.47;;
78877;SDS011;68257;43.514;1.498;2023-03-01T03:10:37;17.05;;;10.75;;
78877;SDS011;68257;43.514;1.498;2023-03-01T03:13:12;17.55;;;10.73;;
78877;SDS011;68257;43.514;1.498;2023-03-01T03:15:39;19.05;;;11.07;;
78877;SDS011;68257;43.514;1.498;2023-03-01T03:18:06;17.53;;;10.60;;
78877;SDS011;68257;43.514;1.498;2023-03-01T03:20:33;17.85;;;10.82;;
78877;SDS011;68257;43.514;1.498;2023-03-01T03:22:59;18.52;;;10.80;;
78877;SDS011;68257;43.514;1.498;2023-03-01T03:25:25;17.13;;;10.77;;
78877;SDS011;68257;43.514;1.498;2023-03-01T03:27:52;16.70;;;10.60;;
78877;SDS011;68257;43.514;1.498;2023-03-01T03:30:25;18.67;;;11.02;;
78877;SDS011;68257;43.514;1.498;2023-03-01T03:32:52;17.05;;;11.00;;
78877;SDS011;68257;43.514;1.498;2023-03-01T03:35:22;17.37;;;10.13;;
78877;SDS011;68257;43.514;1.498;2023-03-01T03:37:49;19.35;;;11.07;;
78877;SDS011;68257;43.514;1.498;2023-03-01T03:40:31;16.80;;;10.25;;
78877;SDS011;68257;43.514;1.498;2023-03-01T03:43:02;16.27;;;10.17;;
78877;SDS011;68257;43.514;1.498;2023-03-01T03:45:29;16.00;;;9.77;;
78877;SDS011;68257;43.514;1.498;2023-03-01T03:47:54;18.47;;;9.97;;
78877;SDS011;68257;43.514;1.498;2023-03-01T03:50:20;15.80;;;9.50;;
78877;SDS011;68257;43.514;1.498;2023-03-01T03:52:45;18.60;;;10.73;;
78877;SDS011;68257;43.514;1.498;2023-03-01T03:55:11;16.30;;;9.77;;
78877;SDS011;68257;43.514;1.498;2023-03-01T03:57:38;15.40;;;9.93;;
78877;SDS011;68257;43.514;1.498;2023-03-01T04:00:04;15.00;;;10.13;;
78877;SDS011;68257;43.514;1.498;2023-03-01T04:02:37;18.70;;;10.10;;
78877;SDS011;68257;43.514;1.498;2023-03-01T04:05:08;17.70;;;10.38;;
78877;SDS011;68257;43.514;1.498;2023-03-01T04:07:35;17.38;;;9.70;;
78877;SDS011;68257;43.514;1.498;2023-03-01T04:10:05;16.05;;;9.82;;
78877;SDS011;68257;43.514;1.498;2023-03-01T04:12:32;18.00;;;9.80;;
78877;SDS011;68257;43.514;1.498;2023-03-01T04:14:59;16.92;;;9.48;;
78877;SDS011;68257;43.514;1.498;2023-03-01T04:17:25;16.27;;;9.68;;
78877;SDS011;68257;43.514;1.498;2023-03-01T04:19:50;17.07;;;8.93;;
78877;SDS011;68257;43.514;1.498;2023-03-01T04:22:16;14.98;;;9.57;;
78877;SDS011;68257;43.514;1.498;2023-03-01T04:24:43;17.35;;;10.23;;
78877;SDS011;68257;43.514;1.498;2023-03-01T04:27:09;16.27;;;10.02;;
78877;SDS011;68257;43.514;1.498;2023-03-01T04:29:35;15.80;;;9.90;;
78877;SDS011;68257;43.514;1.498;2023-03-01T04:32:00;15.33;;;9.17;;
78877;SDS011;68257;43.514;1.498;2023-03-01T04:34:25;16.00;;;9.20;;
78877;SDS011;68257;43.514;1.498;2023-03-01T04:36:54;16.10;;;9.63;;
78877;SDS011;68257;43.514;1.498;2023-03-01T04:39:20;16.23;;;9.27;;
78877;SDS011;68257;43.514;1.498;2023-03-01T04:41:45;17.65;;;9.35;;
78877;SDS011;68257;43.514;1.498;2023-03-01T04:44:11;14.40;;;9.17;;
78877;SDS011;68257;43.514;1.498;2023-03-01T04:46:37;15.38;;;9.80;;
78877;SDS011;68257;43.514;1.498;2023-03-01T04:49:03;15.32;;;9.25;;
78877;SDS011;68257;43.514;1.498;2023-03-01T04:51:29;17.07;;;9.90;;
78877;SDS011;68257;43.514;1.498;2023-03-01T04:53:54;17.17;;;8.50;;
78877;SDS011;68257;43.514;1.498;2023-03-01T04:56:20;15.33;;;9.13;;
78877;SDS011;68257;43.514;1.498;2023-03-01T04:58:48;16.38;;;9.25;;
78877;SDS011;68257;43.514;1.498;2023-03-01T05:01:14;15.98;;;9.50;;
78877;SDS011;68257;43.514;1.498;2023-03-01T05:03:46;21.88;;;10.00;;
78877;SDS011;68257;43.514;1.498;2023-03-01T05:06:12;16.20;;;9.77;;
78877;SDS011;68257;43.514;1.498;2023-03-01T05:08:39;16.38;;;9.07;;
78877;SDS011;68257;43.514;1.498;2023-03-01T05:11:05;15.60;;;9.10;;
78877;SDS011;68257;43.514;1.498;2023-03-01T05:13:36;16.13;;;9.40;;
78877;SDS011;68257;43.514;1.498;2023-03-01T05:16:02;17.52;;;9.88;;
78877;SDS011;68257;43.514;1.498;2023-03-01T05:18:29;18.20;;;10.13;;
78877;SDS011;68257;43.514;1.498;2023-03-01T05:21:00;15.07;;;9.57;;
78877;SDS011;68257;43.514;1.498;2023-03-01T05:23:31;17.42;;;10.00;;
78877;SDS011;68257;43.514;1.498;2023-03-01T05:25:58;17.87;;;10.37;;
78877;SDS011;68257;43.514;1.498;2023-03-01T05:28:24;14.32;;;9.15;;
78877;SDS011;68257;43.514;1.498;2023-03-01T05:30:50;14.95;;;8.48;;
78877;SDS011;68257;43.514;1.498;2023-03-01T05:33:16;17.50;;;10.00;;
78877;SDS011;68257;43.514;1.498;2023-03-01T05:35:42;18.40;;;10.30;;
78877;SDS011;68257;43.514;1.498;2023-03-01T05:38:12;17.50;;;10.55;;
78877;SDS011;68257;43.514;1.498;2023-03-01T05:40:41;18.87;;;11.13;;
78877;SDS011;68257;43.514;1.498;2023-03-01T05:43:08;16.65;;;9.88;;
78877;SDS011;68257;43.514;1.498;2023-03-01T05:45:35;18.20;;;10.30;;
78877;SDS011;68257;43.514;1.498;2023-03-01T05:48:02;17.67;;;9.95;;
78877;SDS011;68257;43.514;1.498;2023-03-01T05:50:29;21.27;;;11.60;;
78877;SDS011;68257;43.514;1.498;2023-03-01T05:52:59;25.70;;;13.18;;
78877;SDS011;68257;43.514;1.498;2023-03-01T05:55:26;18.88;;;10.73;;
78877;SDS011;68257;43.514;1.498;2023-03-01T05:57:52;17.30;;;10.77;;
78877;SDS011;68257;43.514;1.498;2023-03-01T06:00:18;17.02;;;10.13;;
78877;SDS011;68257;43.514;1.498;2023-03-01T06:02:47;17.20;;;9.20;;
78877;SDS011;68257;43.514;1.498;2023-03-01T06:05:13;18.00;;;9.43;;
78877;SDS011;68257;43.514;1.498;2023-03-01T06:07:39;16.75;;;9.27;;
78877;SDS011;68257;43.514;1.498;2023-03-01T06:10:05;15.60;;;9.60;;
78877;SDS011;68257;43.514;1.498;2023-03-01T06:12:31;16.15;;;9.27;;
78877;SDS011;68257;43.514;1.498;2023-03-01T06:15:00;15.40;;;9.27;;
78877;SDS011;68257;43.514;1.498;2023-03-01T06:17:28;17.52;;;9.90;;
78877;SDS011;68257;43.514;1.498;2023-03-01T06:19:54;17.20;;;10.27;;
78877;SDS011;68257;43.514;1.498;2023-03-01T06:22:20;17.03;;;10.00;;
78877;SDS011;68257;43.514;1.498;2023-03-01T06:24:45;16.83;;;9.90;;
78877;SDS011;68257;43.514;1.498;2023-03-01T06:27:11;16.73;;;9.25;;
78877;SDS011;68257;43.514;1.498;2023-03-01T06:29:36;16.33;;;9.17;;
78877;SDS011;68257;43.514;1.498;2023-03-01T06:32:02;16.40;;;10.20;;
78877;SDS011;68257;43.514;1.498;2023-03-01T06:34:28;15.73;;;9.20;;
78877;SDS011;68257;43.514;1.498;2023-03-01T06:36:53;16.70;;;9.83;;
78877;SDS011;68257;43.514;1.498;2023-03-01T06:39:19;16.50;;;9.50;;
78877;SDS011;68257;43.514;1.498;2023-03-01T06:41:44;16.67;;;9.90;;
78877;SDS011;68257;43.514;1.498;2023-03-01T06:44:09;18.38;;;9.52;;
78877;SDS011;68257;43.514;1.498;2023-03-01T06:46:35;16.47;;;9.77;;
78877;SDS011;68257;43.514;1.498;2023-03-01T06:49:01;17.75;;;9.93;;
78877;SDS011;68257;43.514;1.498;2023-03-01T06:51:29;20.02;;;10.68;;
78877;SDS011;68257;43.514;1.498;2023-03-01T06:53:55;43.38;;;20.08;;
78877;SDS011;68257;43.514;1.498;2023-03-01T06:56:20;55.47;;;25.07;;
78877;SDS011;68257;43.514;1.498;2023-03-01T06:58:45;39.67;;;20.00;;
78877;SDS011;68257;43.514;1.498;2023-03-01T07:01:11;33.70;;;16.67;;
78877;SDS011;68257;43.514;1.498;2023-03-01T07:03:36;35.30;;;16.90;;
78877;SDS011;68257;43.514;1.498;2023-03-01T07:06:02;32.30;;;16.88;;
78877;SDS011;68257;43.514;1.498;2023-03-01T07:08:27;39.17;;;17.53;;
78877;SDS011;68257;43.514;1.498;2023-03-01T07:10:56;48.30;;;27.73;;
78877;SDS011;68257;43.514;1.498;2023-03-01T07:13:22;50.13;;;23.88;;
78877;SDS011;68257;43.514;1.498;2023-03-01T07:15:48;42.40;;;24.30;;
78877;SDS011;68257;43.514;1.498;2023-03-01T07:18:13;46.53;;;23.67;;
78877;SDS011;68257;43.514;1.498;2023-03-01T07:20:38;37.70;;;22.63;;
78877;SDS011;68257;43.514;1.498;2023-03-01T07:23:05;40.17;;;22.10;;
78877;SDS011;68257;43.514;1.498;2023-03-01T07:25:31;39.40;;;22.20;;
78877;SDS011;68257;43.514;1.498;2023-03-01T07:27:57;40.72;;;22.33;;
78877;SDS011;68257;43.514;1.498;2023-03-01T07:30:22;45.85;;;23.83;;
78877;SDS011;68257;43.514;1.498;2023-03-01T07:32:51;41.58;;;23.10;;
78877;SDS011;68257;43.514;1.498;2023-03-01T07:35:16;43.38;;;22.88;;
78877;SDS011;68257;43.514;1.498;2023-03-01T07:37:42;35.40;;;21.27;;
78877;SDS011;68257;43.514;1.498;2023-03-01T07:40:08;59.80;;;28.75;;
78877;SDS011;68257;43.514;1.498;2023-03-01T07:42:34;34.85;;;22.63;;
78877;SDS011;68257;43.514;1.498;2023-03-01T07:44:59;31.00;;;18.93;;
78877;SDS011;68257;43.514;1.498;2023-03-01T07:47:24;30.20;;;18.37;;
78877;SDS011;68257;43.514;1.498;2023-03-01T07:49:50;37.63;;;22.40;;
78877;SDS011;68257;43.514;1.498;2023-03-01T07:52:15;42.73;;;23.60;;
78877;SDS011;68257;43.514;1.498;2023-03-01T07:54:42;56.00;;;30.77;;
78877;SDS011;68257;43.514;1.498;2023-03-01T07:57:08;34.38;;;20.42;;
78877;SDS011;68257;43.514;1.498;2023-03-01T07:59:33;35.97;;;19.23;;
78877;SDS011;68257;43.514;1.498;2023-03-01T08:01:59;90.67;;;41.43;;
78877;SDS011;68257;43.514;1.498;2023-03-01T08:04:24;33.45;;;17.70;;
78877;SDS011;68257;43.514;1.498;2023-03-01T08:06:51;30.37;;;18.57;;
78877;SDS011;68257;43.514;1.498;2023-03-01T08:09:17;34.22;;;19.20;;
78877;SDS011;68257;43.514;1.498;2023-03-01T08:11:42;45.57;;;25.80;;
78877;SDS011;68257;43.514;1.498;2023-03-01T08:14:08;29.17;;;15.97;;
78877;SDS011;68257;43.514;1.498;2023-03-01T08:16:33;28.27;;;16.25;;
78877;SDS011;68257;43.514;1.498;2023-03-01T08:19:04;31.00;;;17.43;;
78877;SDS011;68257;43.514;1.498;2023-03-01T08:21:32;50.53;;;32.42;;
78877;SDS011;68257;43.514;1.498;2023-03-01T08:24:00;41.22;;;29.80;;
78877;SDS011;68257;43.514;1.498;2023-03-01T08:26:26;32.50;;;22.55;;
78877;SDS011;68257;43.514;1.498;2023-03-01T08:28:52;38.30;;;27.77;;
78877;SDS011;68257;43.514;1.498;2023-03-01T08:33:51;23.48;;;15.38;;
78877;SDS011;68257;43.514;1.498;2023-03-01T08:36:22;23.85;;;15.68;;
78877;SDS011;68257;43.514;1.498;2023-03-01T08:38:48;17.85;;;12.27;;
78877;SDS011;68257;43.514;1.498;2023-03-01T08:41:14;13.10;;;8.50;;
78877;SDS011;68257;43.514;1.498;2023-03-01T08:43:40;10.70;;;7.60;;
78877;SDS011;68257;43.514;1.498;2023-03-01T08:46:05;12.43;;;7.63;;
78877;SDS011;68257;43.514;1.498;2023-03-01T08:48:31;12.70;;;7.30;;
78877;SDS011;68257;43.514;1.498;2023-03-01T08:50:56;11.17;;;7.67;;
78877;SDS011;68257;43.514;1.498;2023-03-01T08:53:22;11.77;;;7.60;;
78877;SDS011;68257;43.514;1.498;2023-03-01T08:55:47;11.73;;;7.55;;
78877;SDS011;68257;43.514;1.498;2023-03-01T08:58:12;11.27;;;7.17;;
78877;SDS011;68257;43.514;1.498;2023-03-01T09:00:38;11.40;;;7.90;;
78877;SDS011;68257;43.514;1.498;2023-03-01T09:03:05;12.38;;;7.82;;
78877;SDS011;68257;43.514;1.498;2023-03-01T09:05:33;9.83;;;6.67;;
78877;SDS011;68257;43.514;1.498;2023-03-01T09:07:59;9.82;;;6.22;;
78877;SDS011;68257;43.514;1.498;2023-03-01T09:10:24;9.60;;;6.50;;
78877;SDS011;68257;43.514;1.498;2023-03-01T09:12:50;9.27;;;6.53;;
78877;SDS011;68257;43.514;1.498;2023-03-01T09:15:16;10.70;;;7.18;;
78877;SDS011;68257;43.514;1.498;2023-03-01T09:17:41;11.33;;;6.73;;
78877;SDS011;68257;43.514;1.498;2023-03-01T09:20:07;9.68;;;7.00;;
78877;SDS011;68257;43.514;1.498;2023-03-01T09:22:33;9.30;;;7.13;;
78877;SDS011;68257;43.514;1.498;2023-03-01T09:25:00;12.00;;;7.35;;
78877;SDS011;68257;43.514;1.498;2023-03-01T09:27:25;10.45;;;7.40;;
78877;SDS011;68257;43.514;1.498;2023-03-01T09:29:51;10.70;;;6.80;;
78877;SDS011;68257;43.514;1.498;2023-03-01T09:32:16;30.17;;;8.77;;
78877;SDS011;68257;43.514;1.498;2023-03-01T09:34:41;11.63;;;7.70;;
78877;SDS011;68257;43.514;1.498;2023-03-01T09:37:26;11.65;;;7.15;;
78877;SDS011;68257;43.514;1.498;2023-03-01T09:39:51;10.60;;;7.30;;
78877;SDS011;68257;43.514;1.498;2023-03-01T09:42:17;11.53;;;8.30;;
78877;SDS011;68257;43.514;1.498;2023-03-01T09:44:56;12.53;;;7.37;;
78877;SDS011;68257;43.514;1.498;2023-03-01T09:47:29;11.10;;;7.22;;
78877;SDS011;68257;43.514;1.498;2023-03-01T09:52:33;11.88;;;9.15;;
78877;SDS011;68257;43.514;1.498;2023-03-01T09:55:09;10.93;;;9.15;;
78877;SDS011;68257;43.514;1.498;2023-03-01T09:57:45;9.88;;;8.88;;
78877;SDS011;68257;43.514;1.498;2023-03-01T10:05:31;13.00;;;10.65;;
78877;SDS011;68257;43.514;1.498;2023-03-01T10:10:50;12.57;;;11.27;;
78877;SDS011;68257;43.514;1.498;2023-03-01T10:13:21;14.90;;;13.50;;
78877;SDS011;68257;43.514;1.498;2023-03-01T10:15:52;17.08;;;15.05;;
78877;SDS011;68257;43.514;1.498;2023-03-01T10:18:27;15.13;;;13.63;;
78877;SDS011;68257;43.514;1.498;2023-03-01T10:20:59;15.15;;;13.65;;
78877;SDS011;68257;43.514;1.498;2023-03-01T10:23:26;13.52;;;12.32;;
78877;SDS011;68257;43.514;1.498;2023-03-01T10:31:12;12.77;;;11.48;;
78877;SDS011;68257;43.514;1.498;2023-03-01T10:33:39;12.30;;;11.10;;
78877;SDS011;68257;43.514;1.498;2023-03-01T10:36:06;12.43;;;11.13;;
78877;SDS011;68257;43.514;1.498;2023-03-01T10:38:43;13.25;;;11.38;;
78877;SDS011;68257;43.514;1.498;2023-03-01T10:41:18;14.43;;;13.02;;
78877;SDS011;68257;43.514;1.498;2023-03-01T10:43:46;11.17;;;9.83;;
78877;SDS011;68257;43.514;1.498;2023-03-01T10:46:29;11.13;;;10.05;;
78877;SDS011;68257;43.514;1.498;2023-03-01T10:49:06;11.40;;;9.25;;
78877;SDS011;68257;43.514;1.498;2023-03-01T10:51:32;10.05;;;8.95;;
78877;SDS011;68257;43.514;1.498;2023-03-01T10:53:58;12.10;;;9.57;;
78877;SDS011;68257;43.514;1.498;2023-03-01T10:56:23;8.70;;;7.80;;
78877;SDS011;68257;43.514;1.498;2023-03-01T10:59:01;8.77;;;7.03;;
78877;SDS011;68257;43.514;1.498;2023-03-01T11:06:31;7.97;;;7.15;;
78877;SDS011;68257;43.514;1.498;2023-03-01T11:08:56;7.47;;;6.70;;
78877;SDS011;68257;43.514;1.498;2023-03-01T11:11:23;8.80;;;7.70;;
78877;SDS011;68257;43.514;1.498;2023-03-01T11:13:57;7.27;;;6.57;;
78877;SDS011;68257;43.514;1.498;2023-03-01T11:16:32;9.15;;;7.40;;
78877;SDS011;68257;43.514;1.498;2023-03-01T11:18:59;7.88;;;7.07;;
78877;SDS011;68257;43.514;1.498;2023-03-01T11:21:33;7.78;;;6.97;;
78877;SDS011;68257;43.514;1.498;2023-03-01T11:24:01;7.60;;;6.80;;
78877;SDS011;68257;43.514;1.498;2023-03-01T11:26:27;7.87;;;6.93;;
78877;SDS011;68257;43.514;1.498;2023-03-01T11:28:54;7.90;;;7.03;;
78877;SDS011;68257;43.514;1.498;2023-03-01T11:31:22;7.88;;;6.30;;
78877;SDS011;68257;43.514;1.498;2023-03-01T11:33:58;7.70;;;6.82;;
78877;SDS011;68257;43.514;1.498;2023-03-01T11:36:49;7.57;;;6.57;;
78877;SDS011;68257;43.514;1.498;2023-03-01T11:42:27;7.60;;;6.80;;
78877;SDS011;68257;43.514;1.498;2023-03-01T11:45:08;8.05;;;6.85;;
78877;SDS011;68257;43.514;1.498;2023-03-01T11:50:28;7.63;;;6.60;;
78877;SDS011;68257;43.514;1.498;2023-03-01T11:53:25;8.03;;;6.97;;
78877;SDS011;68257;43.514;1.498;2023-03-01T11:56:08;8.00;;;7.20;;
78877;SDS011;68257;43.514;1.498;2023-03-01T11:58:43;8.07;;;7.28;;
78877;SDS011;68257;43.514;1.498;2023-03-01T12:09:50;7.93;;;7.18;;
78877;SDS011;68257;43.514;1.498;2023-03-01T12:17:43;8.30;;;7.50;;
78877;SDS011;68257;43.514;1.498;2023-03-01T12:29:30;7.50;;;6.70;;
78877;SDS011;68257;43.514;1.498;2023-03-01T12:46:31;8.25;;;6.97;;
78877;SDS011;68257;43.514;1.498;2023-03-01T12:48:43;9.27;;;7.90;;
78877;SDS011;68257;43.514;1.498;2023-03-01T12:51:20;8.30;;;7.50;;
78877;SDS011;68257;43.514;1.498;2023-03-01T12:53:50;8.35;;;7.53;;
78877;SDS011;68257;43.514;1.498;2023-03-01T12:56:17;8.15;;;7.35;;
78877;SDS011;68257;43.514;1.498;2023-03-01T12:59:31;8.80;;;7.18;;
78877;SDS011;68257;43.514;1.498;2023-03-01T13:01:41;8.83;;;6.67;;
78877;SDS011;68257;43.514;1.498;2023-03-01T13:09:40;7.22;;;6.53;;
78877;SDS011;68257;43.514;1.498;2023-03-01T13:31:00;8.18;;;6.43;;
78877;SDS011;68257;43.514;1.498;2023-03-01T13:35:51;7.22;;;6.53;;
78877;SDS011;68257;43.514;1.498;2023-03-01T13:49:42;7.88;;;7.07;;
78877;SDS011;68257;43.514;1.498;2023-03-01T13:52:23;7.30;;;6.70;;
78877;SDS011;68257;43.514;1.498;2023-03-01T13:54:55;7.53;;;6.82;;
78877;SDS011;68257;43.514;1.498;2023-03-01T13:57:21;11.73;;;7.50;;
78877;SDS011;68257;43.514;1.498;2023-03-01T13:59:50;8.18;;;7.22;;
78877;SDS011;68257;43.514;1.498;2023-03-01T14:02:15;8.53;;;6.80;;
78877;SDS011;68257;43.514;1.498;2023-03-01T14:04:41;7.63;;;6.88;;
78877;SDS011;68257;43.514;1.498;2023-03-01T14:07:17;7.67;;;6.67;;
78877;SDS011;68257;43.514;1.498;2023-03-01T14:09:45;10.25;;;8.85;;
78877;SDS011;68257;43.514;1.498;2023-03-01T14:12:19;9.25;;;7.38;;
78877;SDS011;68257;43.514;1.498;2023-03-01T14:14:56;7.30;;;6.60;;
78877;SDS011;68257;43.514;1.498;2023-03-01T14:17:38;7.33;;;6.60;;
78877;SDS011;68257;43.514;1.498;2023-03-01T14:20:09;7.50;;;6.70;;
78877;SDS011;68257;43.514;1.498;2023-03-01T14:22:36;7.57;;;6.82;;
78877;SDS011;68257;43.514;1.498;2023-03-01T14:25:05;7.50;;;6.80;;
78877;SDS011;68257;43.514;1.498;2023-03-01T14:27:41;7.90;;;7.10;;
78877;SDS011;68257;43.514;1.498;2023-03-01T14:32:53;8.43;;;7.53;;
78877;SDS011;68257;43.514;1.498;2023-03-01T14:35:23;11.25;;;9.70;;
78877;SDS011;68257;43.514;1.498;2023-03-01T14:37:50;22.52;;;13.30;;
78877;SDS011;68257;43.514;1.498;2023-03-01T14:40:23;9.73;;;8.47;;
78877;SDS011;68257;43.514;1.498;2023-03-01T14:42:51;7.88;;;7.13;;
78877;SDS011;68257;43.514;1.498;2023-03-01T14:45:17;8.10;;;7.30;;
78877;SDS011;68257;43.514;1.498;2023-03-01T14:47:43;8.55;;;7.07;;
78877;SDS011;68257;43.514;1.498;2023-03-01T14:50:14;8.95;;;8.02;;
78877;SDS011;68257;43.514;1.498;2023-03-01T14:52:49;7.50;;;6.80;;
78877;SDS011;68257;43.514;1.498;2023-03-01T14:55:16;7.70;;;7.00;;
78877;SDS011;68257;43.514;1.498;2023-03-01T14:57:44;7.88;;;7.18;;
78877;SDS011;68257;43.514;1.498;2023-03-01T15:00:15;7.80;;;7.07;;
78877;SDS011;68257;43.514;1.498;2023-03-01T15:02:43;7.82;;;7.13;;
78877;SDS011;68257;43.514;1.498;2023-03-01T15:05:13;7.47;;;6.70;;
78877;SDS011;68257;43.514;1.498;2023-03-01T15:07:40;7.70;;;7.00;;
78877;SDS011;68257;43.514;1.498;2023-03-01T15:13:24;7.78;;;7.05;;
78877;SDS011;68257;43.514;1.498;2023-03-01T15:15:53;7.63;;;6.90;;
78877;SDS011;68257;43.514;1.498;2023-03-01T15:18:32;7.80;;;7.00;;
78877;SDS011;68257;43.514;1.498;2023-03-01T15:21:06;7.75;;;7.05;;
78877;SDS011;68257;43.514;1.498;2023-03-01T15:23:33;8.00;;;6.68;;
78877;SDS011;68257;43.514;1.498;2023-03-01T15:25:59;8.00;;;7.20;;
78877;SDS011;68257;43.514;1.498;2023-03-01T15:28:33;8.50;;;7.25;;
78877;SDS011;68257;43.514;1.498;2023-03-01T15:33:42;7.90;;;7.10;;
78877;SDS011;68257;43.514;1.498;2023-03-01T15:41:56;8.27;;;7.47;;
78877;SDS011;68257;43.514;1.498;2023-03-01T15:44:26;8.15;;;7.05;;
78877;SDS011;68257;43.514;1.498;2023-03-01T15:46:54;7.85;;;7.05;;
78877;SDS011;68257;43.514;1.498;2023-03-01T15:51:44;11.53;;;8.70;;
78877;SDS011;68257;43.514;1.498;2023-03-01T15:54:13;9.97;;;7.60;;
78877;SDS011;68257;43.514;1.498;2023-03-01T15:56:45;8.17;;;7.20;;
78877;SDS011;68257;43.514;1.498;2023-03-01T15:59:11;11.32;;;9.35;;
78877;SDS011;68257;43.514;1.498;2023-03-01T16:01:38;8.43;;;6.70;;
78877;SDS011;68257;43.514;1.498;2023-03-01T16:04:05;7.53;;;6.20;;
78877;SDS011;68257;43.514;1.498;2023-03-01T16:06:30;9.07;;;7.00;;
78877;SDS011;68257;43.514;1.498;2023-03-01T16:08:55;9.88;;;7.15;;
78877;SDS011;68257;43.514;1.498;2023-03-01T16:11:21;10.00;;;6.57;;
78877;SDS011;68257;43.514;1.498;2023-03-01T16:13:46;8.03;;;6.27;;
78877;SDS011;68257;43.514;1.498;2023-03-01T16:16:13;9.30;;;6.53;;
78877;SDS011;68257;43.514;1.498;2023-03-01T16:18:47;8.20;;;6.00;;
78877;SDS011;68257;43.514;1.498;2023-03-01T16:21:14;8.77;;;6.10;;
78877;SDS011;68257;43.514;1.498;2023-03-01T16:23:42;8.30;;;5.67;;
78877;SDS011;68257;43.514;1.498;2023-03-01T16:26:09;8.63;;;6.63;;
78877;SDS011;68257;43.514;1.498;2023-03-01T16:28:35;8.32;;;6.25;;
78877;SDS011;68257;43.514;1.498;2023-03-01T16:31:00;9.93;;;6.30;;
78877;SDS011;68257;43.514;1.498;2023-03-01T16:33:26;7.43;;;6.05;;
78877;SDS011;68257;43.514;1.498;2023-03-01T16:35:52;8.20;;;6.07;;
78877;SDS011;68257;43.514;1.498;2023-03-01T16:38:17;8.18;;;6.00;;
78877;SDS011;68257;43.514;1.498;2023-03-01T16:40:46;8.57;;;5.43;;
78877;SDS011;68257;43.514;1.498;2023-03-01T16:43:13;9.23;;;6.38;;
78877;SDS011;68257;43.514;1.498;2023-03-01T16:45:38;8.27;;;6.23;;
78877;SDS011;68257;43.514;1.498;2023-03-01T16:48:05;9.60;;;6.90;;